sensor_id;sensor_type;location;lat;lon;timestamp;pressure;altitude;pressure_sealevel;temperature;humidity
59767;BME280;46248;58.364;25.582;2023-04-06T00:00:24;101674.38;;;1.99;100.00
59767;BME280;46248;58.364;25.582;2023-04-06T00:03:46;101675.25;;;1.95;100.00
59767;BME280;46248;58.364;25.582;2023-04-06T00:07:09;101676.09;;;1.96;100.00
59767;BME280;46248;58.364;25.582;2023-04-06T00:10:31;101674.38;;;1.96;100.00
59767;BME280;46248;58.364;25.582;2023-04-06T00:13:53;101679.53;;;1.96;100.00
59767;BME280;46248;58.364;25.582;2023-04-06T00:17:15;101688.19;;;1.97;100.00
59767;BME280;46248;58.364;25.582;2023-04-06T00:20:37;101682.13;;;1.95;100.00
59767;BME280;46248;58.364;25.582;2023-04-06T00:24:03;101672.69;;;1.97;100.00
59767;BME280;46248;58.364;25.582;2023-04-06T00:27:25;101680.44;;;1.97;100.00
59767;BME280;46248;58.364;25.582;2023-04-06T00:30:47;101670.09;;;1.97;100.00
59767;BME280;46248;58.364;25.582;2023-04-06T00:34:09;101664.91;;;1.98;100.00
59767;BME280;46248;58.364;25.582;2023-04-06T00:37:32;101665.75;;;1.96;100.00
59767;BME280;46248;58.364;25.582;2023-04-06T00:40:55;101665.78;;;1.97;100.00
59767;BME280;46248;58.364;25.582;2023-04-06T00:44:17;101666.63;;;1.98;100.00
59767;BME280;46248;58.364;25.582;2023-04-06T00:47:40;101664.06;;;1.98;100.00
59767;BME280;46248;58.364;25.582;2023-04-06T00:51:02;101664.06;;;1.98;100.00
59767;BME280;46248;58.364;25.582;2023-04-06T00:54:24;101645.94;;;1.89;100.00
59767;BME280;46248;58.364;25.582;2023-04-06T00:57:47;101667.50;;;1.97;100.00
59767;BME280;46248;58.364;25.582;2023-04-06T01:01:10;101661.47;;;1.96;100.00
59767;BME280;46248;58.364;25.582;2023-04-06T01:04:32;101659.75;;;1.97;100.00
59767;BME280;46248;58.364;25.582;2023-04-06T01:07:54;101653.69;;;1.93;100.00
59767;BME280;46248;58.364;25.582;2023-04-06T01:11:15;101660.59;;;1.96;100.00
59767;BME280;46248;58.364;25.582;2023-04-06T01:14:40;101658.88;;;1.96;100.00
59767;BME280;46248;58.364;25.582;2023-04-06T01:18:02;101645.97;;;1.92;100.00
59767;BME280;46248;58.364;25.582;2023-04-06T01:21:25;101655.44;;;1.96;100.00
59767;BME280;46248;58.364;25.582;2023-04-06T01:24:49;101658.88;;;1.95;100.00
59767;BME280;46248;58.364;25.582;2023-04-06T01:28:11;101654.56;;;1.92;100.00
59767;BME280;46248;58.364;25.582;2023-04-06T01:31:32;101658.88;;;1.95;100.00
59767;BME280;46248;58.364;25.582;2023-04-06T01:34:55;101658.03;;;1.91;100.00
59767;BME280;46248;58.364;25.582;2023-04-06T01:38:17;101655.44;;;1.91;100.00
59767;BME280;46248;58.364;25.582;2023-04-06T01:41:40;101655.44;;;1.88;100.00
59767;BME280;46248;58.364;25.582;2023-04-06T01:45:03;101648.53;;;1.86;100.00
59767;BME280;46248;58.364;25.582;2023-04-06T01:48:25;101650.25;;;1.83;100.00
59767;BME280;46248;58.364;25.582;2023-04-06T01:51:47;101643.34;;;1.79;100.00
59767;BME280;46248;58.364;25.582;2023-04-06T01:55:09;101648.47;;;1.75;100.00
59767;BME280;46248;58.364;25.582;2023-04-06T01:58:32;101651.91;;;1.75;100.00
59767;BME280;46248;58.364;25.582;2023-04-06T02:01:55;101646.75;;;1.71;100.00
59767;BME280;46248;58.364;25.582;2023-04-06T02:05:17;101657.06;;;1.69;100.00
59767;BME280;46248;58.364;25.582;2023-04-06T02:08:39;101659.66;;;1.65;100.00
59767;BME280;46248;58.364;25.582;2023-04-06T02:12:01;101663.06;;;1.62;100.00
59767;BME280;46248;58.364;25.582;2023-04-06T02:15:24;101668.22;;;1.59;100.00
59767;BME280;46248;58.364;25.582;2023-04-06T02:18:46;101655.31;;;1.56;100.00
59767;BME280;46248;58.364;25.582;2023-04-06T02:22:08;101655.25;;;1.45;100.00
59767;BME280;46248;58.364;25.582;2023-04-06T02:25:30;101659.56;;;1.46;100.00
59767;BME280;46248;58.364;25.582;2023-04-06T02:28:53;101669.03;;;1.46;100.00
59767;BME280;46248;58.364;25.582;2023-04-06T02:32:16;101666.44;;;1.43;100.00
59767;BME280;46248;58.364;25.582;2023-04-06T02:35:38;101663.84;;;1.36;100.00
59767;BME280;46248;58.364;25.582;2023-04-06T02:39:00;101660.38;;;1.34;100.00
59767;BME280;46248;58.364;25.582;2023-04-06T02:42:22;101670.66;;;1.33;100.00
59767;BME280;46248;58.364;25.582;2023-04-06T02:45:45;101668.09;;;1.28;100.00
59767;BME280;46248;58.364;25.582;2023-04-06T02:49:08;101636.16;;;1.08;100.00
59767;BME280;46248;58.364;25.582;2023-04-06T02:52:30;101668.03;;;1.24;100.00
59767;BME280;46248;58.364;25.582;2023-04-06T02:55:52;101670.63;;;1.24;100.00
59767;BME280;46248;58.364;25.582;2023-04-06T02:59:14;101667.19;;;1.19;100.00
59767;BME280;46248;58.364;25.582;2023-04-06T03:02:36;101673.19;;;1.16;100.00
59767;BME280;46248;58.364;25.582;2023-04-06T03:06:00;101675.72;;;1.14;100.00
59767;BME280;46248;58.364;25.582;2023-04-06T03:09:22;101670.56;;;1.10;100.00
59767;BME280;46248;58.364;25.582;2023-04-06T03:12:44;101687.75;;;1.11;100.00
59767;BME280;46248;58.364;25.582;2023-04-06T03:16:06;101684.28;;;1.06;100.00
59767;BME280;46248;58.364;25.582;2023-04-06T03:19:28;101686.88;;;1.09;100.00
59767;BME280;46248;58.364;25.582;2023-04-06T03:22:52;101692.91;;;1.08;100.00
59767;BME280;46248;58.364;25.582;2023-04-06T03:26:14;101690.31;;;1.03;100.00
59767;BME280;46248;58.364;25.582;2023-04-06T03:29:36;101692.00;;;1.03;100.00
59767;BME280;46248;58.364;25.582;2023-04-06T03:32:58;101689.41;;;1.01;100.00
59767;BME280;46248;58.364;25.582;2023-04-06T03:36:20;101701.44;;;1.02;100.00
59767;BME280;46248;58.364;25.582;2023-04-06T03:39:43;101698.00;;;0.99;100.00
59767;BME280;46248;58.364;25.582;2023-04-06T03:43:05;101684.22;;;0.97;100.00
59767;BME280;46248;58.364;25.582;2023-04-06T03:46:27;101692.84;;;0.99;100.00
59767;BME280;46248;58.364;25.582;2023-04-06T03:49:49;101695.41;;;0.99;100.00
59767;BME280;46248;58.364;25.582;2023-04-06T03:53:11;101692.84;;;0.97;100.00
59767;BME280;46248;58.364;25.582;2023-04-06T03:56:35;101698.84;;;0.99;100.00
59767;BME280;46248;58.364;25.582;2023-04-06T03:59:57;101696.28;;;0.99;100.00
59767;BME280;46248;58.364;25.582;2023-04-06T04:03:19;101691.09;;;0.99;100.00
59767;BME280;46248;58.364;25.582;2023-04-06T04:06:42;101699.69;;;1.00;100.00
59767;BME280;46248;58.364;25.582;2023-04-06T04:10:04;101700.63;;;1.03;100.00
59767;BME280;46248;58.364;25.582;2023-04-06T04:13:28;101697.19;;;1.07;100.00
59767;BME280;46248;58.364;25.582;2023-04-06T04:16:50;101686.03;;;1.11;100.00
59767;BME280;46248;58.364;25.582;2023-04-06T04:20:13;101682.63;;;1.12;100.00
59767;BME280;46248;58.364;25.582;2023-04-06T04:23:34;101686.91;;;1.13;100.00
59767;BME280;46248;58.364;25.582;2023-04-06T04:26:57;101689.53;;;1.18;100.00
59767;BME280;46248;58.364;25.582;2023-04-06T04:30:20;101693.88;;;1.28;100.00
59767;BME280;46248;58.364;25.582;2023-04-06T04:33:42;101703.34;;;1.32;100.00
59767;BME280;46248;58.364;25.582;2023-04-06T04:37:04;101706.00;;;1.40;100.00
59767;BME280;46248;58.364;25.582;2023-04-06T04:40:27;101706.00;;;1.45;100.00
59767;BME280;46248;58.364;25.582;2023-04-06T04:43:48;101709.47;;;1.47;100.00
59767;BME280;46248;58.364;25.582;2023-04-06T04:47:12;101707.78;;;1.53;100.00
59767;BME280;46248;58.364;25.582;2023-04-06T04:50:33;101707.81;;;1.59;100.00
59767;BME280;46248;58.364;25.582;2023-04-06T04:53:55;101716.44;;;1.66;100.00
59767;BME280;46248;58.364;25.582;2023-04-06T04:57:17;101713.03;;;1.67;100.00
59767;BME280;46248;58.364;25.582;2023-04-06T05:00:39;101715.66;;;1.76;100.00
59767;BME280;46248;58.364;25.582;2023-04-06T05:04:02;101719.94;;;1.80;100.00
59767;BME280;46248;58.364;25.582;2023-04-06T05:07:24;101714.78;;;1.79;100.00
59767;BME280;46248;58.364;25.582;2023-04-06T05:10:46;101713.09;;;1.82;100.00
59767;BME280;46248;58.364;25.582;2023-04-06T05:14:09;101726.88;;;1.86;100.00
59767;BME280;46248;58.364;25.582;2023-04-06T05:17:31;101738.94;;;1.90;100.00
59767;BME280;46248;58.364;25.582;2023-04-06T05:20:54;101738.94;;;1.90;100.00
59767;BME280;46248;58.364;25.582;2023-04-06T05:24:16;101744.09;;;1.93;100.00
59767;BME280;46248;58.364;25.582;2023-04-06T05:27:38;101745.81;;;1.90;100.00
59767;BME280;46248;58.364;25.582;2023-04-06T05:31:01;101751.00;;;1.91;100.00
59767;BME280;46248;58.364;25.582;2023-04-06T05:34:23;101750.13;;;1.89;100.00
59767;BME280;46248;58.364;25.582;2023-04-06T05:37:47;101756.16;;;1.91;100.00
59767;BME280;46248;58.364;25.582;2023-04-06T05:41:09;101746.69;;;1.89;100.00
59767;BME280;46248;58.364;25.582;2023-04-06T05:44:31;101763.06;;;1.91;100.00
59767;BME280;46248;58.364;25.582;2023-04-06T05:47:53;101754.44;;;1.89;100.00
59767;BME280;46248;58.364;25.582;2023-04-06T05:51:16;101765.66;;;1.94;100.00
59767;BME280;46248;58.364;25.582;2023-04-06T05:54:40;101762.22;;;1.95;100.00
59767;BME280;46248;58.364;25.582;2023-04-06T05:58:02;101768.22;;;1.95;100.00
59767;BME280;46248;58.364;25.582;2023-04-06T06:01:24;101759.59;;;1.96;100.00
59767;BME280;46248;58.364;25.582;2023-04-06T06:04:46;101766.53;;;1.97;100.00
59767;BME280;46248;58.364;25.582;2023-04-06T06:08:07;101757.91;;;1.94;100.00
59767;BME280;46248;58.364;25.582;2023-04-06T06:11:32;101760.53;;;2.03;100.00
59767;BME280;46248;58.364;25.582;2023-04-06T06:14:54;101760.50;;;1.97;100.00
59767;BME280;46248;58.364;25.582;2023-04-06T06:18:16;101776.03;;;2.03;100.00
59767;BME280;46248;58.364;25.582;2023-04-06T06:21:38;101763.09;;;2.04;100.00
59767;BME280;46248;58.364;25.582;2023-04-06T06:25:00;101780.31;;;2.05;100.00
59767;BME280;46248;58.364;25.582;2023-04-06T06:28:23;101776.88;;;2.02;100.00
59767;BME280;46248;58.364;25.582;2023-04-06T06:31:46;101787.22;;;2.00;100.00
59767;BME280;46248;58.364;25.582;2023-04-06T06:35:08;101782.03;;;2.02;100.00
59767;BME280;46248;58.364;25.582;2023-04-06T06:38:30;101776.03;;;2.06;100.00
59767;BME280;46248;58.364;25.582;2023-04-06T06:41:52;101790.69;;;2.10;100.00
59767;BME280;46248;58.364;25.582;2023-04-06T06:45:16;101786.34;;;2.04;100.00
59767;BME280;46248;58.364;25.582;2023-04-06T06:48:39;101785.50;;;2.07;100.00
59767;BME280;46248;58.364;25.582;2023-04-06T06:52:02;101783.81;;;2.09;100.00
59767;BME280;46248;58.364;25.582;2023-04-06T06:55:24;101787.25;;;2.13;100.00
59767;BME280;46248;58.364;25.582;2023-04-06T06:58:47;101783.81;;;2.17;100.00
59767;BME280;46248;58.364;25.582;2023-04-06T07:02:10;101785.50;;;2.10;100.00
59767;BME280;46248;58.364;25.582;2023-04-06T07:05:34;101788.13;;;2.13;100.00
59767;BME280;46248;58.364;25.582;2023-04-06T07:08:57;101783.81;;;2.14;100.00
59767;BME280;46248;58.364;25.582;2023-04-06T07:12:20;101794.16;;;2.17;100.00
59767;BME280;46248;58.364;25.582;2023-04-06T07:15:41;101792.44;;;2.19;100.00
59767;BME280;46248;58.364;25.582;2023-04-06T07:19:05;101795.03;;;2.19;100.00
59767;BME280;46248;58.364;25.582;2023-04-06T07:22:27;101796.75;;;2.20;100.00
59767;BME280;46248;58.364;25.582;2023-04-06T07:25:49;101790.72;;;2.22;100.00
59767;BME280;46248;58.364;25.582;2023-04-06T07:29:14;101770.91;;;2.12;100.00
59767;BME280;46248;58.364;25.582;2023-04-06T07:32:36;101820.88;;;2.26;100.00
59767;BME280;46248;58.364;25.582;2023-04-06T07:35:59;101797.63;;;2.25;100.00
59767;BME280;46248;58.364;25.582;2023-04-06T07:39:21;101801.94;;;2.27;100.00
59767;BME280;46248;58.364;25.582;2023-04-06T07:42:43;101807.13;;;2.35;100.00
59767;BME280;46248;58.364;25.582;2023-04-06T07:46:05;101810.56;;;2.33;100.00
59767;BME280;46248;58.364;25.582;2023-04-06T07:49:27;101808.88;;;2.30;100.00
59767;BME280;46248;58.364;25.582;2023-04-06T07:52:50;101809.75;;;2.37;100.00
59767;BME280;46248;58.364;25.582;2023-04-06T07:56:12;101809.72;;;2.38;100.00
59767;BME280;46248;58.364;25.582;2023-04-06T07:59:35;101804.53;;;2.32;100.00
59767;BME280;46248;58.364;25.582;2023-04-06T08:02:57;101804.56;;;2.38;100.00
59767;BME280;46248;58.364;25.582;2023-04-06T08:06:19;101817.47;;;2.38;100.00
59767;BME280;46248;58.364;25.582;2023-04-06T08:09:42;101820.09;;;2.40;100.00
59767;BME280;46248;58.364;25.582;2023-04-06T08:13:04;101822.69;;;2.40;100.00
59767;BME280;46248;58.364;25.582;2023-04-06T08:16:27;101822.66;;;2.44;100.00
59767;BME280;46248;58.364;25.582;2023-04-06T08:19:48;101825.25;;;2.44;100.00
59767;BME280;46248;58.364;25.582;2023-04-06T08:23:10;101824.41;;;2.45;100.00
59767;BME280;46248;58.364;25.582;2023-04-06T08:26:34;101823.56;;;2.49;100.00
59767;BME280;46248;58.364;25.582;2023-04-06T08:29:56;101822.72;;;2.55;100.00
59767;BME280;46248;58.364;25.582;2023-04-06T08:33:18;101822.72;;;2.61;100.00
59767;BME280;46248;58.364;25.582;2023-04-06T08:36:40;101824.47;;;2.65;100.00
59767;BME280;46248;58.364;25.582;2023-04-06T08:40:03;101820.16;;;2.67;100.00
59767;BME280;46248;58.364;25.582;2023-04-06T08:43:28;101826.22;;;2.69;100.00
59767;BME280;46248;58.364;25.582;2023-04-06T08:46:51;101823.63;;;2.69;100.00
59767;BME280;46248;58.364;25.582;2023-04-06T08:50:13;101803.75;;;2.62;100.00
59767;BME280;46248;58.364;25.582;2023-04-06T08:53:36;101834.84;;;2.79;100.00
59767;BME280;46248;58.364;25.582;2023-04-06T08:56:58;101825.34;;;2.81;100.00
59767;BME280;46248;58.364;25.582;2023-04-06T09:00:22;101833.13;;;2.86;100.00
59767;BME280;46248;58.364;25.582;2023-04-06T09:03:46;101839.16;;;2.86;100.00
59767;BME280;46248;58.364;25.582;2023-04-06T09:07:10;101843.47;;;2.92;100.00
59767;BME280;46248;58.364;25.582;2023-04-06T09:10:32;101840.88;;;2.96;100.00
59767;BME280;46248;58.364;25.582;2023-04-06T09:13:55;101840.91;;;3.00;100.00
59767;BME280;46248;58.364;25.582;2023-04-06T09:17:23;101834.00;;;3.02;100.00
59767;BME280;46248;58.364;25.582;2023-04-06T09:20:45;101838.34;;;3.00;100.00
59767;BME280;46248;58.364;25.582;2023-04-06T09:24:08;101840.94;;;3.03;100.00
59767;BME280;46248;58.364;25.582;2023-04-06T09:27:32;101839.19;;;2.94;100.00
59767;BME280;46248;58.364;25.582;2023-04-06T09:30:54;101844.34;;;2.92;100.00
59767;BME280;46248;58.364;25.582;2023-04-06T09:34:22;101849.53;;;2.97;100.00
59767;BME280;46248;58.364;25.582;2023-04-06T09:37:44;101836.59;;;2.95;100.00
59767;BME280;46248;58.364;25.582;2023-04-06T09:41:06;101836.59;;;2.91;100.00
59767;BME280;46248;58.364;25.582;2023-04-06T09:44:30;101843.50;;;2.98;100.00
59767;BME280;46248;58.364;25.582;2023-04-06T09:47:52;101849.56;;;3.06;100.00
59767;BME280;46248;58.364;25.582;2023-04-06T09:51:18;101844.38;;;3.18;100.00
59767;BME280;46248;58.364;25.582;2023-04-06T09:54:42;101834.88;;;3.24;100.00
59767;BME280;46248;58.364;25.582;2023-04-06T09:58:05;101842.63;;;3.33;100.00
59767;BME280;46248;58.364;25.582;2023-04-06T10:01:30;101839.19;;;3.23;100.00
59767;BME280;46248;58.364;25.582;2023-04-06T10:04:56;101840.91;;;3.22;100.00
59767;BME280;46248;58.364;25.582;2023-04-06T10:08:24;101843.50;;;3.29;100.00
59767;BME280;46248;58.364;25.582;2023-04-06T10:11:52;101847.81;;;3.33;100.00
59767;BME280;46248;58.364;25.582;2023-04-06T10:15:14;101837.47;;;3.31;100.00
59767;BME280;46248;58.364;25.582;2023-04-06T10:18:38;101835.75;;;3.39;100.00
59767;BME280;46248;58.364;25.582;2023-04-06T10:22:02;101841.78;;;3.44;100.00
59767;BME280;46248;58.364;25.582;2023-04-06T10:25:28;101839.19;;;3.49;100.00
59767;BME280;46248;58.364;25.582;2023-04-06T10:28:50;101823.66;;;3.44;100.00
59767;BME280;46248;58.364;25.582;2023-04-06T10:32:12;101840.91;;;3.59;100.00
59767;BME280;46248;58.364;25.582;2023-04-06T10:35:37;101844.34;;;3.61;100.00
59767;BME280;46248;58.364;25.582;2023-04-06T10:39:02;101845.22;;;3.66;100.00
59767;BME280;46248;58.364;25.582;2023-04-06T10:42:36;101841.75;;;3.67;100.00
59767;BME280;46248;58.364;25.582;2023-04-06T10:46:00;101815.88;;;3.46;100.00
59767;BME280;46248;58.364;25.582;2023-04-06T10:49:22;101843.50;;;3.64;100.00
59767;BME280;46248;58.364;25.582;2023-04-06T10:52:47;101833.97;;;3.60;100.00
59767;BME280;46248;58.364;25.582;2023-04-06T10:56:22;101840.91;;;3.64;100.00
59767;BME280;46248;58.364;25.582;2023-04-06T10:59:46;101844.31;;;3.72;100.00
59767;BME280;46248;58.364;25.582;2023-04-06T11:03:08;101829.66;;;3.79;100.00
59767;BME280;46248;58.364;25.582;2023-04-06T11:06:31;101835.66;;;3.84;100.00
59767;BME280;46248;58.364;25.582;2023-04-06T11:09:53;101839.13;;;3.87;100.00
59767;BME280;46248;58.364;25.582;2023-04-06T11:13:41;101827.91;;;3.88;100.00
59767;BME280;46248;58.364;25.582;2023-04-06T11:17:04;101831.34;;;3.94;100.00
59767;BME280;46248;58.364;25.582;2023-04-06T11:20:27;101827.03;;;3.86;100.00
59767;BME280;46248;58.364;25.582;2023-04-06T11:23:49;101838.22;;;3.99;100.00
59767;BME280;46248;58.364;25.582;2023-04-06T11:27:11;101833.00;;;4.05;100.00
59767;BME280;46248;58.364;25.582;2023-04-06T11:30:35;101832.13;;;4.11;100.00
59767;BME280;46248;58.364;25.582;2023-04-06T11:33:58;101827.84;;;4.15;100.00
59767;BME280;46248;58.364;25.582;2023-04-06T11:37:20;101827.78;;;4.19;100.00
59767;BME280;46248;58.364;25.582;2023-04-06T11:40:42;101837.28;;;4.22;99.75
59767;BME280;46248;58.364;25.582;2023-04-06T11:44:05;101832.94;;;4.33;99.12
59767;BME280;46248;58.364;25.582;2023-04-06T11:47:34;101821.69;;;4.34;97.90
59767;BME280;46248;58.364;25.582;2023-04-06T11:50:58;101824.25;;;4.37;97.69
59767;BME280;46248;58.364;25.582;2023-04-06T11:54:30;101821.63;;;4.45;98.92
59767;BME280;46248;58.364;25.582;2023-04-06T11:57:52;101817.28;;;4.54;99.11
59767;BME280;46248;58.364;25.582;2023-04-06T12:01:13;101820.72;;;4.55;98.38
59767;BME280;46248;58.364;25.582;2023-04-06T12:04:35;101812.91;;;4.58;97.44
59767;BME280;46248;58.364;25.582;2023-04-06T12:07:59;101813.75;;;4.65;97.77
59767;BME280;46248;58.364;25.582;2023-04-06T12:11:23;101807.66;;;4.70;97.30
59767;BME280;46248;58.364;25.582;2023-04-06T12:14:44;101810.19;;;4.75;96.86
59767;BME280;46248;58.364;25.582;2023-04-06T12:18:06;101811.09;;;4.74;96.71
59767;BME280;46248;58.364;25.582;2023-04-06T12:21:29;101808.50;;;4.71;97.28
59767;BME280;46248;58.364;25.582;2023-04-06T12:24:52;101811.97;;;4.73;95.92
59767;BME280;46248;58.364;25.582;2023-04-06T12:28:14;101810.19;;;4.75;96.44
59767;BME280;46248;58.364;25.582;2023-04-06T12:31:37;101807.63;;;4.76;95.94
59767;BME280;46248;58.364;25.582;2023-04-06T12:35:01;101798.13;;;4.72;96.06
59767;BME280;46248;58.364;25.582;2023-04-06T12:38:23;101794.56;;;4.84;96.44
59767;BME280;46248;58.364;25.582;2023-04-06T12:41:46;101788.56;;;4.82;95.01
59767;BME280;46248;58.364;25.582;2023-04-06T12:45:09;101792.88;;;4.85;95.58
59767;BME280;46248;58.364;25.582;2023-04-06T12:48:31;101791.16;;;4.79;95.14
59767;BME280;46248;58.364;25.582;2023-04-06T12:51:54;101790.28;;;4.80;95.38
59767;BME280;46248;58.364;25.582;2023-04-06T12:55:16;101783.38;;;4.77;94.65
59767;BME280;46248;58.364;25.582;2023-04-06T12:58:39;101777.28;;;4.85;95.11
59767;BME280;46248;58.364;25.582;2023-04-06T13:02:03;101786.75;;;4.93;95.26
59767;BME280;46248;58.364;25.582;2023-04-06T13:05:26;101775.31;;;5.13;95.37
59767;BME280;46248;58.364;25.582;2023-04-06T13:08:50;101778.66;;;5.25;94.36
59767;BME280;46248;58.364;25.582;2023-04-06T13:12:12;101776.00;;;5.35;93.34
59767;BME280;46248;58.364;25.582;2023-04-06T13:15:35;101773.34;;;5.42;93.41
59767;BME280;46248;58.364;25.582;2023-04-06T13:18:58;101766.31;;;5.50;92.76
59767;BME280;46248;58.364;25.582;2023-04-06T13:22:20;101773.22;;;5.55;92.25
59767;BME280;46248;58.364;25.582;2023-04-06T13:25:41;101765.31;;;5.62;92.23
59767;BME280;46248;58.364;25.582;2023-04-06T13:29:03;101765.31;;;5.62;91.06
59767;BME280;46248;58.364;25.582;2023-04-06T13:32:27;101768.72;;;5.69;90.66
59767;BME280;46248;58.364;25.582;2023-04-06T13:35:49;101763.41;;;5.81;92.31
59767;BME280;46248;58.364;25.582;2023-04-06T13:39:11;101747.88;;;5.73;90.97
59767;BME280;46248;58.364;25.582;2023-04-06T13:42:33;101767.59;;;5.94;91.56
59767;BME280;46248;58.364;25.582;2023-04-06T13:45:57;101757.13;;;6.01;91.72
59767;BME280;46248;58.364;25.582;2023-04-06T13:49:22;101759.75;;;5.97;90.64
59767;BME280;46248;58.364;25.582;2023-04-06T13:52:44;101755.47;;;5.93;92.04
59767;BME280;46248;58.364;25.582;2023-04-06T13:56:07;101758.94;;;5.94;91.01
59767;BME280;46248;58.364;25.582;2023-04-06T13:59:32;101752.00;;;5.90;91.22
59767;BME280;46248;58.364;25.582;2023-04-06T14:02:54;101750.25;;;5.95;91.92
59767;BME280;46248;58.364;25.582;2023-04-06T14:06:17;101753.66;;;6.00;90.78
59767;BME280;46248;58.364;25.582;2023-04-06T14:09:50;101753.63;;;6.02;89.82
59767;BME280;46248;58.364;25.582;2023-04-06T14:13:12;101747.53;;;6.06;90.93
59767;BME280;46248;58.364;25.582;2023-04-06T14:16:34;101743.03;;;6.17;91.12
59767;BME280;46248;58.364;25.582;2023-04-06T14:19:56;101745.53;;;6.25;90.20
59767;BME280;46248;58.364;25.582;2023-04-06T14:23:19;101734.22;;;6.27;89.24
59767;BME280;46248;58.364;25.582;2023-04-06T14:26:41;101736.78;;;6.30;89.58
59767;BME280;46248;58.364;25.582;2023-04-06T14:30:05;101732.41;;;6.34;89.24
59767;BME280;46248;58.364;25.582;2023-04-06T14:33:27;101735.81;;;6.39;89.46
59767;BME280;46248;58.364;25.582;2023-04-06T14:36:49;101730.47;;;6.47;90.07
59767;BME280;46248;58.364;25.582;2023-04-06T14:40:13;101722.53;;;6.57;87.84
59767;BME280;46248;58.364;25.582;2023-04-06T14:43:35;101725.84;;;6.67;88.03
59767;BME280;46248;58.364;25.582;2023-04-06T14:46:57;101726.59;;;6.75;88.06
59767;BME280;46248;58.364;25.582;2023-04-06T14:50:19;101723.13;;;6.72;86.89
59767;BME280;46248;58.364;25.582;2023-04-06T14:53:41;101720.53;;;6.73;87.79
59767;BME280;46248;58.364;25.582;2023-04-06T14:57:05;101716.13;;;6.78;88.31
59767;BME280;46248;58.364;25.582;2023-04-06T15:00:27;101728.19;;;6.84;88.58
59767;BME280;46248;58.364;25.582;2023-04-06T15:03:49;101726.38;;;6.86;88.27
59767;BME280;46248;58.364;25.582;2023-04-06T15:07:11;101720.31;;;6.87;87.59
59767;BME280;46248;58.364;25.582;2023-04-06T15:10:33;101727.22;;;6.88;87.43
59767;BME280;46248;58.364;25.582;2023-04-06T15:13:56;101711.63;;;6.86;87.51
59767;BME280;46248;58.364;25.582;2023-04-06T15:17:18;101726.34;;;6.89;86.41
59767;BME280;46248;58.364;25.582;2023-04-06T15:20:40;101717.66;;;6.90;87.79
59767;BME280;46248;58.364;25.582;2023-04-06T15:24:03;101717.56;;;6.95;87.01
59767;BME280;46248;58.364;25.582;2023-04-06T15:27:28;101715.81;;;6.95;87.42
59767;BME280;46248;58.364;25.582;2023-04-06T15:30:53;101707.03;;;7.02;87.03
59767;BME280;46248;58.364;25.582;2023-04-06T15:34:15;101710.44;;;7.06;87.44
59767;BME280;46248;58.364;25.582;2023-04-06T15:37:38;101705.16;;;7.09;85.90
59767;BME280;46248;58.364;25.582;2023-04-06T15:41:00;101702.56;;;7.09;86.91
59767;BME280;46248;58.364;25.582;2023-04-06T15:44:23;101709.50;;;7.10;85.64
59767;BME280;46248;58.364;25.582;2023-04-06T15:47:46;101699.91;;;7.12;86.53
59767;BME280;46248;58.364;25.582;2023-04-06T15:51:08;101700.75;;;7.13;86.83
59767;BME280;46248;58.364;25.582;2023-04-06T15:54:30;101695.53;;;7.14;86.94
59767;BME280;46248;58.364;25.582;2023-04-06T15:57:53;101698.16;;;7.14;86.17
59767;BME280;46248;58.364;25.582;2023-04-06T16:01:17;101681.78;;;7.06;86.26
59767;BME280;46248;58.364;25.582;2023-04-06T16:04:41;101700.72;;;7.16;87.16
59767;BME280;46248;58.364;25.582;2023-04-06T16:08:03;101686.91;;;7.10;86.42
59767;BME280;46248;58.364;25.582;2023-04-06T16:11:25;101699.06;;;7.11;87.13
59767;BME280;46248;58.364;25.582;2023-04-06T16:14:47;101692.09;;;7.10;86.46
59767;BME280;46248;58.364;25.582;2023-04-06T16:18:09;101697.34;;;7.09;86.76
59767;BME280;46248;58.364;25.582;2023-04-06T16:21:32;101690.47;;;7.05;86.56
59767;BME280;46248;58.364;25.582;2023-04-06T16:24:54;101698.31;;;7.03;85.96
59767;BME280;46248;58.364;25.582;2023-04-06T16:28:16;101700.94;;;7.02;86.37
59767;BME280;46248;58.364;25.582;2023-04-06T16:31:38;101698.44;;;6.96;85.74
59767;BME280;46248;58.364;25.582;2023-04-06T16:35:01;101690.84;;;6.83;86.67
59767;BME280;46248;58.364;25.582;2023-04-06T16:38:24;101703.00;;;6.83;86.59
59767;BME280;46248;58.364;25.582;2023-04-06T16:41:53;101700.50;;;6.78;87.35
59767;BME280;46248;58.364;25.582;2023-04-06T16:45:15;101698.84;;;6.71;87.48
59767;BME280;46248;58.364;25.582;2023-04-06T16:48:37;101696.44;;;6.60;87.17
59767;BME280;46248;58.364;25.582;2023-04-06T16:52:00;101709.56;;;6.53;87.26
59767;BME280;46248;58.364;25.582;2023-04-06T16:55:25;101709.69;;;6.45;87.64
59767;BME280;46248;58.364;25.582;2023-04-06T16:58:47;101715.03;;;6.34;87.82
59767;BME280;46248;58.364;25.582;2023-04-06T17:02:09;101713.47;;;6.24;87.93
59767;BME280;46248;58.364;25.582;2023-04-06T17:05:31;101709.25;;;6.14;87.85
59767;BME280;46248;58.364;25.582;2023-04-06T17:08:54;101702.56;;;5.99;88.01
59767;BME280;46248;58.364;25.582;2023-04-06T17:12:17;101715.59;;;5.94;88.28
59767;BME280;46248;58.364;25.582;2023-04-06T17:15:39;101726.09;;;5.85;88.41
59767;BME280;46248;58.364;25.582;2023-04-06T17:19:02;101724.44;;;5.77;88.26
59767;BME280;46248;58.364;25.582;2023-04-06T17:22:24;101712.53;;;5.60;88.71
59767;BME280;46248;58.364;25.582;2023-04-06T17:25:46;101717.75;;;5.57;88.75
59767;BME280;46248;58.364;25.582;2023-04-06T17:29:09;101723.91;;;5.48;88.95